sensor_id;sensor_type;location;lat;lon;timestamp;temperature;humidity
10597;DHT22;5346;48.766;8.674;2023-06-10T00:00:51;14.60;1.00
10597;DHT22;5346;48.766;8.674;2023-06-10T00:03:25;14.50;1.00
10597;DHT22;5346;48.766;8.674;2023-06-10T00:06:00;14.40;1.00
10597;DHT22;5346;48.766;8.674;2023-06-10T00:08:36;14.30;1.00
10597;DHT22;5346;48.766;8.674;2023-06-10T00:11:11;14.30;1.00
10597;DHT22;5346;48.766;8.674;2023-06-10T00:13:38;14.20;1.00
10597;DHT22;5346;48.766;8.674;2023-06-10T00:16:12;14.10;1.00
10597;DHT22;5346;48.766;8.674;2023-06-10T00:18:46;14.10;1.00
10597;DHT22;5346;48.766;8.674;2023-06-10T00:21:20;14.00;1.00
10597;DHT22;5346;48.766;8.674;2023-06-10T00:23:54;14.00;1.00
10597;DHT22;5346;48.766;8.674;2023-06-10T00:26:23;14.00;1.00
10597;DHT22;5346;48.766;8.674;2023-06-10T00:28:57;14.00;1.00
10597;DHT22;5346;48.766;8.674;2023-06-10T00:31:31;14.00;1.00
10597;DHT22;5346;48.766;8.674;2023-06-10T00:34:06;14.00;1.00
10597;DHT22;5346;48.766;8.674;2023-06-10T00:36:41;14.00;1.00
10597;DHT22;5346;48.766;8.674;2023-06-10T00:39:17;14.00;4.80
10597;DHT22;5346;48.766;8.674;2023-06-10T00:41:44;13.90;5.60
10597;DHT22;5346;48.766;8.674;2023-06-10T00:44:12;13.90;20.50
10597;DHT22;5346;48.766;8.674;2023-06-10T00:46:46;13.90;22.60
10597;DHT22;5346;48.766;8.674;2023-06-10T00:49:20;13.90;16.50
10597;DHT22;5346;48.766;8.674;2023-06-10T00:51:54;13.90;53.70
10597;DHT22;5346;48.766;8.674;2023-06-10T00:54:29;13.90;82.80
10597;DHT22;5346;48.766;8.674;2023-06-10T00:57:04;13.90;61.00
10597;DHT22;5346;48.766;8.674;2023-06-10T00:59:40;13.80;57.50
10597;DHT22;5346;48.766;8.674;2023-06-10T01:02:16;13.80;52.90
10597;DHT22;5346;48.766;8.674;2023-06-10T01:04:57;13.80;74.30
10597;DHT22;5346;48.766;8.674;2023-06-10T01:07:43;13.70;93.10
10597;DHT22;5346;48.766;8.674;2023-06-10T01:11:07;13.60;99.90
10597;DHT22;5346;48.766;8.674;2023-06-10T01:13:50;13.70;99.90
10597;DHT22;5346;48.766;8.674;2023-06-10T01:16:22;13.70;99.90
10597;DHT22;5346;48.766;8.674;2023-06-10T01:18:57;13.70;99.90
10597;DHT22;5346;48.766;8.674;2023-06-10T01:21:25;13.70;99.90
10597;DHT22;5346;48.766;8.674;2023-06-10T01:24:01;13.60;99.90
10597;DHT22;5346;48.766;8.674;2023-06-10T01:26:32;13.50;99.90
10597;DHT22;5346;48.766;8.674;2023-06-10T01:29:35;13.40;99.90
10597;DHT22;5346;48.766;8.674;2023-06-10T01:32:21;13.40;99.90
10597;DHT22;5346;48.766;8.674;2023-06-10T01:35:02;13.50;99.90
10597;DHT22;5346;48.766;8.674;2023-06-10T01:37:31;13.60;99.90
10597;DHT22;5346;48.766;8.674;2023-06-10T01:40:07;13.60;99.90
10597;DHT22;5346;48.766;8.674;2023-06-10T01:42:42;13.60;99.90
10597;DHT22;5346;48.766;8.674;2023-06-10T01:45:16;13.60;99.90
10597;DHT22;5346;48.766;8.674;2023-06-10T01:47:43;13.60;99.90
10597;DHT22;5346;48.766;8.674;2023-06-10T01:50:12;13.60;99.90
10597;DHT22;5346;48.766;8.674;2023-06-10T01:52:46;13.60;99.90
10597;DHT22;5346;48.766;8.674;2023-06-10T01:55:20;13.70;99.90
10597;DHT22;5346;48.766;8.674;2023-06-10T01:57:54;13.60;99.90
10597;DHT22;5346;48.766;8.674;2023-06-10T02:00:28;13.60;99.90
10597;DHT22;5346;48.766;8.674;2023-06-10T02:03:08;13.50;99.90
10597;DHT22;5346;48.766;8.674;2023-06-10T02:05:36;13.50;99.90
10597;DHT22;5346;48.766;8.674;2023-06-10T02:08:11;13.60;99.90
10597;DHT22;5346;48.766;8.674;2023-06-10T02:10:38;13.50;99.90
10597;DHT22;5346;48.766;8.674;2023-06-10T02:13:12;13.50;99.90
10597;DHT22;5346;48.766;8.674;2023-06-10T02:15:39;13.40;99.90
10597;DHT22;5346;48.766;8.674;2023-06-10T02:18:13;13.40;99.90
10597;DHT22;5346;48.766;8.674;2023-06-10T02:20:40;13.30;99.90
10597;DHT22;5346;48.766;8.674;2023-06-10T02:23:14;13.30;99.90
10597;DHT22;5346;48.766;8.674;2023-06-10T02:25:41;13.30;99.90
10597;DHT22;5346;48.766;8.674;2023-06-10T02:28:17;13.20;99.90
10597;DHT22;5346;48.766;8.674;2023-06-10T02:30:44;13.20;99.90
10597;DHT22;5346;48.766;8.674;2023-06-10T02:33:13;13.20;99.90
10597;DHT22;5346;48.766;8.674;2023-06-10T02:35:48;13.10;99.90
10597;DHT22;5346;48.766;8.674;2023-06-10T02:38:16;13.00;99.90
10597;DHT22;5346;48.766;8.674;2023-06-10T02:40:43;13.00;99.90
10597;DHT22;5346;48.766;8.674;2023-06-10T02:43:17;13.00;99.90
10597;DHT22;5346;48.766;8.674;2023-06-10T02:45:51;13.10;99.90
10597;DHT22;5346;48.766;8.674;2023-06-10T02:48:25;13.10;99.90
10597;DHT22;5346;48.766;8.674;2023-06-10T02:51:01;13.10;99.90
10597;DHT22;5346;48.766;8.674;2023-06-10T02:53:28;13.10;99.90
10597;DHT22;5346;48.766;8.674;2023-06-10T02:56:02;13.00;99.90
10597;DHT22;5346;48.766;8.674;2023-06-10T02:58:30;12.90;99.90
10597;DHT22;5346;48.766;8.674;2023-06-10T03:01:04;12.80;99.90
10597;DHT22;5346;48.766;8.674;2023-06-10T03:03:45;12.80;99.90
10597;DHT22;5346;48.766;8.674;2023-06-10T03:06:20;12.90;99.90
10597;DHT22;5346;48.766;8.674;2023-06-10T03:09:05;12.90;99.90
10597;DHT22;5346;48.766;8.674;2023-06-10T03:11:48;12.90;99.90
10597;DHT22;5346;48.766;8.674;2023-06-10T03:14:22;12.80;99.90
10597;DHT22;5346;48.766;8.674;2023-06-10T03:16:56;12.70;99.90
10597;DHT22;5346;48.766;8.674;2023-06-10T03:19:23;12.70;1.00
10597;DHT22;5346;48.766;8.674;2023-06-10T03:22:14;12.60;1.00
10597;DHT22;5346;48.766;8.674;2023-06-10T03:24:48;12.60;1.00
10597;DHT22;5346;48.766;8.674;2023-06-10T03:27:24;12.50;1.00
10597;DHT22;5346;48.766;8.674;2023-06-10T03:29:59;12.50;1.00
10597;DHT22;5346;48.766;8.674;2023-06-10T03:32:33;12.50;1.00
10597;DHT22;5346;48.766;8.674;2023-06-10T03:35:00;12.50;1.00
10597;DHT22;5346;48.766;8.674;2023-06-10T03:37:34;12.60;1.00
10597;DHT22;5346;48.766;8.674;2023-06-10T03:40:03;12.60;1.00
10597;DHT22;5346;48.766;8.674;2023-06-10T03:42:39;12.60;1.00
10597;DHT22;5346;48.766;8.674;2023-06-10T03:45:06;12.70;1.00
10597;DHT22;5346;48.766;8.674;2023-06-10T03:47:41;12.70;1.00
10597;DHT22;5346;48.766;8.674;2023-06-10T03:50:10;12.80;1.00
10597;DHT22;5346;48.766;8.674;2023-06-10T03:52:44;12.80;1.00
10597;DHT22;5346;48.766;8.674;2023-06-10T03:55:12;12.70;1.00
10597;DHT22;5346;48.766;8.674;2023-06-10T03:57:50;12.70;1.00
10597;DHT22;5346;48.766;8.674;2023-06-10T04:00:24;12.70;1.00
10597;DHT22;5346;48.766;8.674;2023-06-10T04:02:58;12.70;1.00
10597;DHT22;5346;48.766;8.674;2023-06-10T04:05:33;12.70;1.00
10597;DHT22;5346;48.766;8.674;2023-06-10T04:08:08;12.70;1.00
10597;DHT22;5346;48.766;8.674;2023-06-10T04:10:42;12.70;1.00
10597;DHT22;5346;48.766;8.674;2023-06-10T04:13:16;12.80;1.00
10597;DHT22;5346;48.766;8.674;2023-06-10T04:15:50;12.80;1.00
10597;DHT22;5346;48.766;8.674;2023-06-10T04:18:18;12.90;1.00
10597;DHT22;5346;48.766;8.674;2023-06-10T04:20:52;12.90;1.00
10597;DHT22;5346;48.766;8.674;2023-06-10T04:23:19;13.00;1.00
10597;DHT22;5346;48.766;8.674;2023-06-10T04:25:54;13.00;1.00
10597;DHT22;5346;48.766;8.674;2023-06-10T04:28:28;13.00;1.00
10597;DHT22;5346;48.766;8.674;2023-06-10T04:31:02;13.00;1.00
10597;DHT22;5346;48.766;8.674;2023-06-10T04:33:37;13.00;1.00
10597;DHT22;5346;48.766;8.674;2023-06-10T04:36:05;13.10;1.00
10597;DHT22;5346;48.766;8.674;2023-06-10T04:38:40;13.10;1.00
10597;DHT22;5346;48.766;8.674;2023-06-10T04:41:08;13.20;1.00
10597;DHT22;5346;48.766;8.674;2023-06-10T04:43:42;13.30;1.00
10597;DHT22;5346;48.766;8.674;2023-06-10T04:46:10;13.40;1.00
10597;DHT22;5346;48.766;8.674;2023-06-10T04:48:44;13.60;1.00
10597;DHT22;5346;48.766;8.674;2023-06-10T04:51:14;13.60;1.00
10597;DHT22;5346;48.766;8.674;2023-06-10T04:53:48;13.80;99.90
10597;DHT22;5346;48.766;8.674;2023-06-10T04:56:15;14.00;99.90
10597;DHT22;5346;48.766;8.674;2023-06-10T04:58:50;14.20;99.90
10597;DHT22;5346;48.766;8.674;2023-06-10T05:01:24;14.30;99.90
10597;DHT22;5346;48.766;8.674;2023-06-10T05:03:59;14.50;99.90
10597;DHT22;5346;48.766;8.674;2023-06-10T05:06:40;14.60;99.90
10597;DHT22;5346;48.766;8.674;2023-06-10T05:09:09;14.80;99.90
10597;DHT22;5346;48.766;8.674;2023-06-10T05:11:43;15.00;99.90
10597;DHT22;5346;48.766;8.674;2023-06-10T05:14:18;15.10;99.90
10597;DHT22;5346;48.766;8.674;2023-06-10T05:16:54;15.40;99.90
10597;DHT22;5346;48.766;8.674;2023-06-10T05:19:29;15.50;99.90
10597;DHT22;5346;48.766;8.674;2023-06-10T05:21:57;15.70;99.90
10597;DHT22;5346;48.766;8.674;2023-06-10T05:24:32;15.80;99.90
10597;DHT22;5346;48.766;8.674;2023-06-10T05:26:59;15.90;99.90
10597;DHT22;5346;48.766;8.674;2023-06-10T05:29:33;16.10;59.20
10597;DHT22;5346;48.766;8.674;2023-06-10T05:32:01;16.20;67.20
10597;DHT22;5346;48.766;8.674;2023-06-10T05:34:36;16.30;9.40
10597;DHT22;5346;48.766;8.674;2023-06-10T05:37:10;16.40;1.00
10597;DHT22;5346;48.766;8.674;2023-06-10T05:39:46;16.60;11.50
10597;DHT22;5346;48.766;8.674;2023-06-10T05:42:20;16.70;1.00
10597;DHT22;5346;48.766;8.674;2023-06-10T05:44:54;16.80;1.00
10597;DHT22;5346;48.766;8.674;2023-06-10T05:47:22;16.90;1.00
10597;DHT22;5346;48.766;8.674;2023-06-10T05:49:56;17.10;1.00
10597;DHT22;5346;48.766;8.674;2023-06-10T05:52:34;17.20;1.00
10597;DHT22;5346;48.766;8.674;2023-06-10T05:55:09;17.40;1.00
10597;DHT22;5346;48.766;8.674;2023-06-10T05:57:37;17.60;1.00
10597;DHT22;5346;48.766;8.674;2023-06-10T06:00:12;17.90;1.00
10597;DHT22;5346;48.766;8.674;2023-06-10T06:02:48;18.30;1.00
10597;DHT22;5346;48.766;8.674;2023-06-10T06:05:28;18.80;1.00
10597;DHT22;5346;48.766;8.674;2023-06-10T06:08:11;19.10;1.00
10597;DHT22;5346;48.766;8.674;2023-06-10T06:10:40;19.30;1.00
10597;DHT22;5346;48.766;8.674;2023-06-10T06:13:14;19.50;1.00
10597;DHT22;5346;48.766;8.674;2023-06-10T06:15:49;19.60;1.00
10597;DHT22;5346;48.766;8.674;2023-06-10T06:18:17;19.80;1.00
10597;DHT22;5346;48.766;8.674;2023-06-10T06:20:52;20.00;1.00
10597;DHT22;5346;48.766;8.674;2023-06-10T06:23:27;20.10;1.00
10597;DHT22;5346;48.766;8.674;2023-06-10T06:25:55;20.40;1.00
10597;DHT22;5346;48.766;8.674;2023-06-10T06:28:29;20.50;1.00
10597;DHT22;5346;48.766;8.674;2023-06-10T06:31:04;20.50;1.00
10597;DHT22;5346;48.766;8.674;2023-06-10T06:33:38;20.60;1.00
10597;DHT22;5346;48.766;8.674;2023-06-10T06:36:05;20.70;1.00
10597;DHT22;5346;48.766;8.674;2023-06-10T06:38:39;20.80;1.00
10597;DHT22;5346;48.766;8.674;2023-06-10T06:41:07;20.80;1.00
10597;DHT22;5346;48.766;8.674;2023-06-10T06:43:41;20.80;1.00
10597;DHT22;5346;48.766;8.674;2023-06-10T06:46:10;21.00;1.00
10597;DHT22;5346;48.766;8.674;2023-06-10T06:48:44;21.10;1.00
10597;DHT22;5346;48.766;8.674;2023-06-10T06:51:18;21.10;1.00
10597;DHT22;5346;48.766;8.674;2023-06-10T06:53:52;21.10;1.00
10597;DHT22;5346;48.766;8.674;2023-06-10T06:56:30;21.10;1.00
10597;DHT22;5346;48.766;8.674;2023-06-10T06:58:58;21.10;1.00
10597;DHT22;5346;48.766;8.674;2023-06-10T07:01:38;21.10;1.00
10597;DHT22;5346;48.766;8.674;2023-06-10T07:04:15;20.90;1.00
10597;DHT22;5346;48.766;8.674;2023-06-10T07:06:56;20.90;1.00
10597;DHT22;5346;48.766;8.674;2023-06-10T07:09:30;20.90;1.00
10597;DHT22;5346;48.766;8.674;2023-06-10T07:11:58;20.90;1.00
10597;DHT22;5346;48.766;8.674;2023-06-10T07:14:33;20.90;1.00
10597;DHT22;5346;48.766;8.674;2023-06-10T07:17:02;20.90;1.00
10597;DHT22;5346;48.766;8.674;2023-06-10T07:19:36;20.80;1.00
10597;DHT22;5346;48.766;8.674;2023-06-10T07:22:08;20.90;1.00
10597;DHT22;5346;48.766;8.674;2023-06-10T07:24:42;20.90;1.00
10597;DHT22;5346;48.766;8.674;2023-06-10T07:27:16;21.00;1.00
10597;DHT22;5346;48.766;8.674;2023-06-10T07:29:51;21.10;1.00
10597;DHT22;5346;48.766;8.674;2023-06-10T07:32:20;21.10;1.00
10597;DHT22;5346;48.766;8.674;2023-06-10T07:34:55;21.00;1.00
10597;DHT22;5346;48.766;8.674;2023-06-10T07:37:23;21.20;1.00
10597;DHT22;5346;48.766;8.674;2023-06-10T07:39:57;21.30;1.00
10597;DHT22;5346;48.766;8.674;2023-06-10T07:42:24;21.40;1.00
10597;DHT22;5346;48.766;8.674;2023-06-10T07:44:58;21.50;1.00
10597;DHT22;5346;48.766;8.674;2023-06-10T07:47:27;21.50;1.00
10597;DHT22;5346;48.766;8.674;2023-06-10T07:50:02;21.60;1.00
10597;DHT22;5346;48.766;8.674;2023-06-10T07:52:31;21.60;1.00
10597;DHT22;5346;48.766;8.674;2023-06-10T07:55:05;21.70;1.00
10597;DHT22;5346;48.766;8.674;2023-06-10T07:57:33;21.80;1.00
10597;DHT22;5346;48.766;8.674;2023-06-10T08:00:10;21.90;1.00
10597;DHT22;5346;48.766;8.674;2023-06-10T08:02:39;22.00;1.00
10597;DHT22;5346;48.766;8.674;2023-06-10T08:05:19;22.10;1.00
10597;DHT22;5346;48.766;8.674;2023-06-10T08:07:48;22.30;1.00
10597;DHT22;5346;48.766;8.674;2023-06-10T08:10:22;22.40;1.00
10597;DHT22;5346;48.766;8.674;2023-06-10T08:12:58;22.40;1.00
10597;DHT22;5346;48.766;8.674;2023-06-10T08:15:33;22.50;1.00
10597;DHT22;5346;48.766;8.674;2023-06-10T08:18:00;22.60;1.00
10597;DHT22;5346;48.766;8.674;2023-06-10T08:20:34;22.80;1.00
10597;DHT22;5346;48.766;8.674;2023-06-10T08:23:08;22.90;1.00
10597;DHT22;5346;48.766;8.674;2023-06-10T08:25:42;23.00;1.00
10597;DHT22;5346;48.766;8.674;2023-06-10T08:28:16;22.90;1.00
10597;DHT22;5346;48.766;8.674;2023-06-10T08:30:43;23.10;1.00
10597;DHT22;5346;48.766;8.674;2023-06-10T08:33:17;23.00;1.00
10597;DHT22;5346;48.766;8.674;2023-06-10T08:38:25;22.80;99.90
10597;DHT22;5346;48.766;8.674;2023-06-10T08:41:05;23.00;1.00
10597;DHT22;5346;48.766;8.674;2023-06-10T08:43:38;23.00;1.00
10597;DHT22;5346;48.766;8.674;2023-06-10T08:46:16;23.20;1.40
10597;DHT22;5346;48.766;8.674;2023-06-10T08:48:47;23.40;99.90
10597;DHT22;5346;48.766;8.674;2023-06-10T08:51:27;23.40;99.90
10597;DHT22;5346;48.766;8.674;2023-06-10T08:54:02;23.40;1.40
10597;DHT22;5346;48.766;8.674;2023-06-10T08:56:43;23.40;99.90
10597;DHT22;5346;48.766;8.674;2023-06-10T08:59:11;23.60;99.90
10597;DHT22;5346;48.766;8.674;2023-06-10T09:01:47;23.70;99.90
10597;DHT22;5346;48.766;8.674;2023-06-10T09:04:27;23.80;99.90
10597;DHT22;5346;48.766;8.674;2023-06-10T09:07:02;24.00;99.90
10597;DHT22;5346;48.766;8.674;2023-06-10T09:09:37;24.10;99.90
10597;DHT22;5346;48.766;8.674;2023-06-10T09:12:13;24.30;99.90
10597;DHT22;5346;48.766;8.674;2023-06-10T09:14:47;24.50;99.90
10597;DHT22;5346;48.766;8.674;2023-06-10T09:17:21;24.70;99.90
10597;DHT22;5346;48.766;8.674;2023-06-10T09:19:49;24.50;99.90
10597;DHT22;5346;48.766;8.674;2023-06-10T09:22:24;24.10;99.90
10597;DHT22;5346;48.766;8.674;2023-06-10T09:30:25;24.60;99.90
10597;DHT22;5346;48.766;8.674;2023-06-10T09:33:09;24.80;99.90
10597;DHT22;5346;48.766;8.674;2023-06-10T09:35:49;24.90;99.90
10597;DHT22;5346;48.766;8.674;2023-06-10T09:38:30;25.20;99.90
10597;DHT22;5346;48.766;8.674;2023-06-10T09:41:05;25.60;99.90
10597;DHT22;5346;48.766;8.674;2023-06-10T09:43:43;25.80;99.90
10597;DHT22;5346;48.766;8.674;2023-06-10T09:46:19;25.60;99.90
10597;DHT22;5346;48.766;8.674;2023-06-10T09:48:48;25.60;99.90
10597;DHT22;5346;48.766;8.674;2023-06-10T09:51:22;25.80;99.90
10597;DHT22;5346;48.766;8.674;2023-06-10T09:53:54;26.00;99.90
10597;DHT22;5346;48.766;8.674;2023-06-10T09:56:37;26.20;99.90
10597;DHT22;5346;48.766;8.674;2023-06-10T09:59:04;26.20;99.90
10597;DHT22;5346;48.766;8.674;2023-06-10T10:01:39;26.50;99.90
10597;DHT22;5346;48.766;8.674;2023-06-10T10:04:13;26.80;99.90
10597;DHT22;5346;48.766;8.674;2023-06-10T10:07:04;26.90;99.90
10597;DHT22;5346;48.766;8.674;2023-06-10T10:09:41;27.30;99.90
10597;DHT22;5346;48.766;8.674;2023-06-10T10:12:16;27.50;99.90
10597;DHT22;5346;48.766;8.674;2023-06-10T10:14:50;27.80;99.90
10597;DHT22;5346;48.766;8.674;2023-06-10T10:17:26;27.90;99.90
10597;DHT22;5346;48.766;8.674;2023-06-10T10:20:04;27.80;99.90
10597;DHT22;5346;48.766;8.674;2023-06-10T10:22:43;27.80;99.90
10597;DHT22;5346;48.766;8.674;2023-06-10T10:25:17;27.50;99.90
10597;DHT22;5346;48.766;8.674;2023-06-10T10:28:06;27.70;99.90
10597;DHT22;5346;48.766;8.674;2023-06-10T10:38:38;28.60;99.90
10597;DHT22;5346;48.766;8.674;2023-06-10T10:41:18;28.70;99.90
10597;DHT22;5346;48.766;8.674;2023-06-10T10:43:49;28.60;99.90
10597;DHT22;5346;48.766;8.674;2023-06-10T10:46:25;28.80;99.90
10597;DHT22;5346;48.766;8.674;2023-06-10T10:48:53;29.30;99.90
10597;DHT22;5346;48.766;8.674;2023-06-10T10:51:33;29.50;99.90
10597;DHT22;5346;48.766;8.674;2023-06-10T10:54:13;29.40;99.90
10597;DHT22;5346;48.766;8.674;2023-06-10T10:57:33;29.30;99.90
10597;DHT22;5346;48.766;8.674;2023-06-10T11:00:02;29.00;99.90
10597;DHT22;5346;48.766;8.674;2023-06-10T11:05:18;27.00;99.90
10597;DHT22;5346;48.766;8.674;2023-06-10T11:08:07;26.90;99.90
10597;DHT22;5346;48.766;8.674;2023-06-10T11:10:52;27.60;99.90
10597;DHT22;5346;48.766;8.674;2023-06-10T11:13:27;28.50;99.90
10597;DHT22;5346;48.766;8.674;2023-06-10T11:16:04;28.90;99.90
10597;DHT22;5346;48.766;8.674;2023-06-10T11:18:39;29.60;99.90
10597;DHT22;5346;48.766;8.674;2023-06-10T11:21:06;28.70;99.90
10597;DHT22;5346;48.766;8.674;2023-06-10T11:23:41;28.50;99.90
10597;DHT22;5346;48.766;8.674;2023-06-10T11:26:19;29.00;99.90
10597;DHT22;5346;48.766;8.674;2023-06-10T11:29:06;29.60;99.90
10597;DHT22;5346;48.766;8.674;2023-06-10T11:31:40;30.00;99.90
10597;DHT22;5346;48.766;8.674;2023-06-10T11:34:25;30.20;99.90
10597;DHT22;5346;48.766;8.674;2023-06-10T11:36:54;30.30;99.90
10597;DHT22;5346;48.766;8.674;2023-06-10T11:39:28;30.50;99.90
10597;DHT22;5346;48.766;8.674;2023-06-10T11:42:03;30.60;99.90
10597;DHT22;5346;48.766;8.674;2023-06-10T11:44:37;30.70;99.90
10597;DHT22;5346;48.766;8.674;2023-06-10T11:47:05;30.50;99.90
10597;DHT22;5346;48.766;8.674;2023-06-10T11:49:39;29.60;99.90
10597;DHT22;5346;48.766;8.674;2023-06-10T11:52:17;29.30;99.90
10597;DHT22;5346;48.766;8.674;2023-06-10T11:55:01;29.60;99.90
10597;DHT22;5346;48.766;8.674;2023-06-10T11:57:37;29.70;99.90
10597;DHT22;5346;48.766;8.674;2023-06-10T12:00:14;30.00;99.90
10597;DHT22;5346;48.766;8.674;2023-06-10T12:02:56;30.30;99.90
10597;DHT22;5346;48.766;8.674;2023-06-10T12:05:31;30.90;99.90
10597;DHT22;5346;48.766;8.674;2023-06-10T12:08:10;31.00;99.90
10597;DHT22;5346;48.766;8.674;2023-06-10T12:10:45;30.90;99.90
10597;DHT22;5346;48.766;8.674;2023-06-10T12:13:12;31.00;99.90
10597;DHT22;5346;48.766;8.674;2023-06-10T12:15:48;31.10;99.90
10597;DHT22;5346;48.766;8.674;2023-06-10T12:18:23;31.30;99.90
10597;DHT22;5346;48.766;8.674;2023-06-10T12:20:57;31.00;99.90
10597;DHT22;5346;48.766;8.674;2023-06-10T12:23:31;30.70;99.90
10597;DHT22;5346;48.766;8.674;2023-06-10T12:26:05;31.00;99.90
10597;DHT22;5346;48.766;8.674;2023-06-10T12:28:33;31.60;99.90
10597;DHT22;5346;48.766;8.674;2023-06-10T12:31:07;31.30;99.90
10597;DHT22;5346;48.766;8.674;2023-06-10T12:33:42;31.30;99.90
10597;DHT22;5346;48.766;8.674;2023-06-10T12:36:19;30.60;99.90
10597;DHT22;5346;48.766;8.674;2023-06-10T12:39:05;29.90;99.90
10597;DHT22;5346;48.766;8.674;2023-06-10T12:41:39;29.20;99.90
10597;DHT22;5346;48.766;8.674;2023-06-10T12:44:14;28.30;99.90
10597;DHT22;5346;48.766;8.674;2023-06-10T12:46:41;27.40;99.90
10597;DHT22;5346;48.766;8.674;2023-06-10T12:49:21;26.90;99.90
10597;DHT22;5346;48.766;8.674;2023-06-10T12:51:56;26.40;99.90
10597;DHT22;5346;48.766;8.674;2023-06-10T12:54:30;26.40;99.90
10597;DHT22;5346;48.766;8.674;2023-06-10T12:56:58;27.20;99.90
10597;DHT22;5346;48.766;8.674;2023-06-10T12:59:32;28.40;99.90
10597;DHT22;5346;48.766;8.674;2023-06-10T13:02:06;29.30;99.90
10597;DHT22;5346;48.766;8.674;2023-06-10T13:04:47;29.70;99.90
10597;DHT22;5346;48.766;8.674;2023-06-10T13:07:21;29.90;99.90
10597;DHT22;5346;48.766;8.674;2023-06-10T13:09:49;30.20;99.90
10597;DHT22;5346;48.766;8.674;2023-06-10T13:12:23;30.50;99.90
10597;DHT22;5346;48.766;8.674;2023-06-10T13:15:14;30.20;99.90
10597;DHT22;5346;48.766;8.674;2023-06-10T13:17:44;29.00;99.90
10597;DHT22;5346;48.766;8.674;2023-06-10T13:20:22;27.80;99.90
10597;DHT22;5346;48.766;8.674;2023-06-10T13:22:50;27.60;99.90
10597;DHT22;5346;48.766;8.674;2023-06-10T13:25:24;28.00;99.90
10597;DHT22;5346;48.766;8.674;2023-06-10T13:27:58;28.80;99.90
10597;DHT22;5346;48.766;8.674;2023-06-10T13:30:32;29.50;99.90
10597;DHT22;5346;48.766;8.674;2023-06-10T13:33:06;29.70;99.90
10597;DHT22;5346;48.766;8.674;2023-06-10T13:35:33;29.20;99.90
10597;DHT22;5346;48.766;8.674;2023-06-10T13:38:07;28.60;99.90
10597;DHT22;5346;48.766;8.674;2023-06-10T13:40:41;27.90;99.90
10597;DHT22;5346;48.766;8.674;2023-06-10T13:43:15;27.40;99.90
10597;DHT22;5346;48.766;8.674;2023-06-10T13:45:51;26.90;99.90
10597;DHT22;5346;48.766;8.674;2023-06-10T13:48:25;26.70;99.90
10597;DHT22;5346;48.766;8.674;2023-06-10T13:50:52;26.40;99.90
10597;DHT22;5346;48.766;8.674;2023-06-10T13:53:26;26.40;99.90
10597;DHT22;5346;48.766;8.674;2023-06-10T13:55:53;26.20;99.90
10597;DHT22;5346;48.766;8.674;2023-06-10T13:58:27;26.40;99.90
10597;DHT22;5346;48.766;8.674;2023-06-10T14:00:54;27.80;99.90
10597;DHT22;5346;48.766;8.674;2023-06-10T14:03:28;29.30;99.90
10597;DHT22;5346;48.766;8.674;2023-06-10T14:06:02;30.40;99.90
10597;DHT22;5346;48.766;8.674;2023-06-10T14:08:37;31.20;99.90
